sensor_id;sensor_type;location;lat;lon;timestamp;temperature;humidity
70149;DHT22;57514;52.164;5.282;2023-02-15T08:29:01;10.40;93.00
70149;DHT22;57514;52.164;5.282;2023-02-15T10:47:31;20.50;49.70
70149;DHT22;57514;52.164;5.282;2023-02-15T10:56:16;21.40;56.00
70149;DHT22;57514;52.164;5.282;2023-02-15T11:01:53;21.90;47.30
70149;DHT22;57514;52.164;5.282;2023-02-15T11:09:50;20.30;51.70
70149;DHT22;57514;52.164;5.282;2023-02-15T11:12:23;19.90;50.90
70149;DHT22;57514;52.164;5.282;2023-02-15T11:15:02;19.60;49.10
70149;DHT22;57514;52.164;5.282;2023-02-15T11:17:37;19.30;53.20
70149;DHT22;57514;52.164;5.282;2023-02-15T11:25:19;17.90;56.60
70149;DHT22;57514;52.164;5.282;2023-02-15T11:30:21;18.00;57.10
70149;DHT22;57514;52.164;5.282;2023-02-15T11:43:12;19.10;55.60
70149;DHT22;57514;52.164;5.282;2023-02-15T11:45:42;20.00;54.10
70149;DHT22;57514;52.164;5.282;2023-02-15T11:48:12;20.00;52.30
70149;DHT22;57514;52.164;5.282;2023-02-15T11:50:39;21.00;62.70
70149;DHT22;57514;52.164;5.282;2023-02-15T11:53:18;20.20;52.70
70149;DHT22;57514;52.164;5.282;2023-02-15T11:55:49;19.20;57.10
70149;DHT22;57514;52.164;5.282;2023-02-15T12:01:00;21.50;47.60
70149;DHT22;57514;52.164;5.282;2023-02-15T12:06:02;20.90;47.50
70149;DHT22;57514;52.164;5.282;2023-02-15T12:08:43;20.90;47.60
70149;DHT22;57514;52.164;5.282;2023-02-15T12:11:15;21.20;50.30
70149;DHT22;57514;52.164;5.282;2023-02-15T12:13:55;19.80;46.70
70149;DHT22;57514;52.164;5.282;2023-02-15T12:18:53;21.10;50.90
70149;DHT22;57514;52.164;5.282;2023-02-15T12:23:57;22.40;64.90
70149;DHT22;57514;52.164;5.282;2023-02-15T12:26:33;21.00;47.80
70149;DHT22;57514;52.164;5.282;2023-02-15T12:29:15;21.30;48.00
70149;DHT22;57514;52.164;5.282;2023-02-15T12:31:49;21.90;49.60
70149;DHT22;57514;52.164;5.282;2023-02-15T12:34:46;22.40;45.80
70149;DHT22;57514;52.164;5.282;2023-02-15T12:37:23;22.80;44.60
70149;DHT22;57514;52.164;5.282;2023-02-15T12:39:53;22.70;46.60
70149;DHT22;57514;52.164;5.282;2023-02-15T12:44:56;23.10;44.30
70149;DHT22;57514;52.164;5.282;2023-02-15T12:50:13;24.10;42.80
70149;DHT22;57514;52.164;5.282;2023-02-15T12:52:48;25.10;59.30
70149;DHT22;57514;52.164;5.282;2023-02-15T12:57:49;25.30;41.80
70149;DHT22;57514;52.164;5.282;2023-02-15T13:02:59;24.60;41.50
70149;DHT22;57514;52.164;5.282;2023-02-15T13:08:30;23.00;41.90
70149;DHT22;57514;52.164;5.282;2023-02-15T13:11:03;21.70;45.50
70149;DHT22;57514;52.164;5.282;2023-02-15T13:13:34;20.80;47.30
70149;DHT22;57514;52.164;5.282;2023-02-15T13:18:38;19.60;50.70
70149;DHT22;57514;52.164;5.282;2023-02-15T13:28:44;17.50;55.20
70149;DHT22;57514;52.164;5.282;2023-02-15T19:40:21;9.40;86.60
70149;DHT22;57514;52.164;5.282;2023-02-15T19:55:25;9.20;86.70
